Time;durP1;ratioP1;P1;durP2;ratioP2;P2;SDS_P1;SDS_P2;PMS_P1;PMS_P2;Temp;Humidity;BMP_temperature;BMP_pressure;BME280_temperature;BME280_humidity;BME280_pressure;Samples;Min_cycle;Max_cycle;Signal;HPM_P1;HPM_P2
2023/05/15 04:02:05;;;;;;;0.60;0.10;;;14.70;97.90;;;;;;5397419;22;20600;-71
2023/05/15 04:04:33;;;;;;;0.60;0.10;;;14.60;99.90;;;;;;4995633;28;20565;-69
2023/05/15 04:07:02;;;;;;;0.60;0.20;;;14.50;97.60;;;;;;4993811;28;20461;-69
2023/05/15 04:09:30;;;;;;;0.60;0.10;;;14.30;98.30;;;;;;4995165;28;20461;-69
2023/05/15 04:11:58;;;;;;;0.60;0.10;;;14.30;98.80;;;;;;4988844;28;20469;-69
2023/05/15 04:14:25;;;;;;;0.60;0.10;;;14.30;99.90;;;;;;4997043;28;20537;-69
2023/05/15 04:16:54;;;;;;;0.60;0.10;;;14.20;99.90;;;;;;4996502;28;20832;-69
2023/05/15 04:19:23;;;;;;;0.60;0.10;;;14.20;99.90;;;;;;4994902;28;20453;-70
2023/05/15 04:21:51;;;;;;;0.60;0.10;;;14.00;99.90;;;;;;4993590;28;20474;-70
2023/05/15 04:24:19;;;;;;;0.60;0.10;;;14.00;99.90;;;;;;4992547;28;20815;-70
2023/05/15 04:26:46;;;;;;;0.60;0.10;;;13.90;99.90;;;;;;4993274;28;20554;-71
2023/05/15 04:29:14;;;;;;;0.60;0.10;;;13.90;99.90;;;;;;4995921;28;20445;-72
2023/05/15 04:31:42;;;;;;;0.60;0.10;;;14.00;99.90;;;;;;5001948;28;20480;-70
2023/05/15 04:34:10;;;;;;;0.60;0.10;;;14.00;99.90;;;;;;4998223;28;20461;-70
2023/05/15 04:36:40;;;;;;;0.60;0.10;;;14.10;99.90;;;;;;4998388;28;20453;-70
2023/05/15 04:39:09;;;;;;;0.60;0.10;;;14.10;99.90;;;;;;4995881;28;20455;-71
2023/05/15 04:41:37;;;;;;;0.60;0.10;;;14.20;99.90;;;;;;4997100;28;20535;-71
2023/05/15 04:44:05;;;;;;;0.60;0.10;;;14.20;99.90;;;;;;4996118;28;20845;-70
2023/05/15 04:46:36;;;;;;;0.60;0.10;;;14.20;99.90;;;;;;4996291;28;20448;-70
2023/05/15 04:49:04;;;;;;;0.60;0.10;;;14.20;99.90;;;;;;4996506;28;20477;-70
2023/05/15 04:51:32;;;;;;;0.60;0.10;;;14.30;99.90;;;;;;4996675;28;20460;-70
2023/05/15 04:54:01;;;;;;;0.60;0.10;;;14.30;99.90;;;;;;4996736;28;20442;-70
2023/05/15 04:56:29;;;;;;;0.70;0.40;;;14.40;99.90;;;;;;4996332;28;20447;-70
2023/05/15 04:58:57;;;;;;;0.60;0.10;;;14.40;99.90;;;;;;4997008;28;21054;-70
2023/05/15 05:01:25;;;;;;;0.60;0.20;;;14.40;99.90;;;;;;4996171;28;20477;-69
2023/05/15 05:03:53;;;;;;;0.60;0.20;;;14.40;99.90;;;;;;4990841;28;20837;-70
2023/05/15 05:06:21;;;;;;;0.60;0.10;;;14.40;99.90;;;;;;4988927;28;20437;-70
2023/05/15 05:08:48;;;;;;;0.60;0.10;;;14.30;99.90;;;;;;4996544;28;20538;-70
2023/05/15 05:11:18;;;;;;;0.60;0.10;;;14.40;99.90;;;;;;5006776;28;20460;-72
2023/05/15 05:13:45;;;;;;;0.60;0.10;;;14.40;99.90;;;;;;5015571;28;20451;-71
2023/05/15 05:16:13;;;;;;;0.60;0.20;;;14.50;99.90;;;;;;4997976;28;20445;-71
2023/05/15 05:18:41;;;;;;;0.60;0.10;;;14.50;99.90;;;;;;4997090;28;20595;-70
2023/05/15 05:21:09;;;;;;;0.60;0.10;;;14.50;99.90;;;;;;4996045;28;20883;-71
2023/05/15 05:23:37;;;;;;;0.60;0.10;;;14.50;99.90;;;;;;4996690;28;20446;-70
2023/05/15 05:26:05;;;;;;;0.60;0.10;;;14.40;99.90;;;;;;4995566;28;20477;-70
2023/05/15 05:28:34;;;;;;;0.60;0.10;;;14.40;99.90;;;;;;4996122;28;20449;-71
2023/05/15 05:31:02;;;;;;;0.60;0.10;;;14.60;99.90;;;;;;4996446;28;21089;-72
2023/05/15 05:33:30;;;;;;;0.60;0.10;;;14.60;99.90;;;;;;4995515;28;20942;-69
2023/05/15 05:35:58;;;;;;;0.60;0.10;;;14.70;99.90;;;;;;4995690;28;20945;-71
2023/05/15 05:38:26;;;;;;;0.60;0.13;;;14.70;99.90;;;;;;4995642;28;20482;-70
2023/05/15 05:40:54;;;;;;;0.60;0.10;;;14.80;99.90;;;;;;4994836;28;20559;-71
2023/05/15 05:43:22;;;;;;;5.30;4.80;;;14.90;99.90;;;;;;4995374;28;20957;-71
2023/05/15 05:45:51;;;;;;;0.60;0.10;;;14.90;99.90;;;;;;4992975;28;20568;-71
2023/05/15 05:48:19;;;;;;;0.60;0.10;;;15.00;99.90;;;;;;4987663;28;20450;-71
2023/05/15 05:50:47;;;;;;;0.60;0.10;;;15.10;99.90;;;;;;4994963;28;20504;-71
2023/05/15 05:53:15;;;;;;;0.60;0.20;;;15.10;99.90;;;;;;4999318;28;21091;-70
2023/05/15 05:55:43;;;;;;;0.60;0.10;;;15.10;99.90;;;;;;5004034;28;20446;-71
2023/05/15 05:58:11;;;;;;;0.60;0.10;;;15.10;99.90;;;;;;4993919;28;20466;-70
2023/05/15 06:00:53;;;;;;;0.60;0.10;;;15.20;99.90;;;;;;4995694;28;20469;-72
2023/05/15 06:03:21;;;;;;;0.60;0.10;;;15.20;99.90;;;;;;4995501;28;20478;-72
2023/05/15 06:05:50;;;;;;;0.60;0.10;;;15.20;99.90;;;;;;4995385;28;20482;-73
2023/05/15 06:08:18;;;;;;;0.60;0.10;;;15.20;99.90;;;;;;4997290;28;20514;-72
2023/05/15 06:10:47;;;;;;;0.60;0.10;;;15.60;99.90;;;;;;4993436;28;20511;-69
2023/05/15 06:13:15;;;;;;;0.60;0.20;;;15.80;99.90;;;;;;4997994;28;20468;-68
2023/05/15 06:15:44;;;;;;;0.60;0.10;;;16.00;99.90;;;;;;4993511;28;20451;-71
2023/05/15 06:18:14;;;;;;;0.60;0.10;;;15.90;99.90;;;;;;5012873;28;20895;-71
2023/05/15 06:20:42;;;;;;;0.60;0.10;;;16.20;99.90;;;;;;5016309;28;20448;-69
2023/05/15 06:23:10;;;;;;;0.60;0.10;;;16.20;99.90;;;;;;5018726;28;20470;-72
2023/05/15 06:25:38;;;;;;;0.60;0.10;;;16.30;99.90;;;;;;5009981;28;20935;-72
2023/05/15 06:28:06;;;;;;;0.60;0.10;;;16.30;99.90;;;;;;4995736;28;20523;-71
2023/05/15 06:30:33;;;;;;;0.60;0.10;;;16.30;99.90;;;;;;4995005;28;20446;-71
2023/05/15 06:33:01;;;;;;;0.60;0.10;;;16.30;99.90;;;;;;4994669;28;20852;-71
2023/05/15 06:35:31;;;;;;;0.60;0.20;;;16.40;99.90;;;;;;4994675;28;20494;-70
2023/05/15 06:37:59;;;;;;;0.60;0.10;;;16.30;99.90;;;;;;4995710;28;20458;-72
2023/05/15 06:40:27;;;;;;;0.60;0.10;;;;;;;;;;4995508;28;20461;-73
2023/05/15 06:42:55;;;;;;;0.60;0.10;;;16.30;99.90;;;;;;4995276;28;20942;-72
2023/05/15 06:45:23;;;;;;;0.60;0.10;;;16.20;99.90;;;;;;4995499;28;20481;-71
2023/05/15 06:47:51;;;;;;;0.60;0.10;;;16.20;99.90;;;;;;4995544;28;20866;-70
2023/05/15 06:50:19;;;;;;;0.60;0.10;;;16.30;99.90;;;;;;4996527;28;20866;-70
2023/05/15 06:52:48;;;;;;;0.60;0.10;;;16.40;99.90;;;;;;4998274;28;20465;-73
2023/05/15 06:55:16;;;;;;;0.60;0.10;;;16.40;99.90;;;;;;5001433;28;20452;-71
2023/05/15 06:57:45;;;;;;;0.60;0.10;;;16.50;99.90;;;;;;5008423;28;20452;-71
2023/05/15 07:00:14;;;;;;;0.60;0.10;;;16.50;99.90;;;;;;5006717;28;20445;-70
2023/05/15 07:02:42;;;;;;;0.60;0.10;;;16.50;98.80;;;;;;5005238;28;20507;-72
2023/05/15 07:05:11;;;;;;;0.60;0.10;;;16.50;96.20;;;;;;5006850;28;20451;-71
2023/05/15 07:07:39;;;;;;;0.60;0.10;;;16.40;96.40;;;;;;5007799;28;20540;-70
2023/05/15 07:10:09;;;;;;;0.60;0.10;;;16.60;96.70;;;;;;5002734;28;20449;-72
2023/05/15 07:12:37;;;;;;;0.60;0.10;;;16.60;96.90;;;;;;5000897;28;20502;-72
2023/05/15 07:15:06;;;;;;;0.60;0.10;;;16.60;99.90;;;;;;4995639;28;20848;-73
2023/05/15 07:17:34;;;;;;;0.60;0.10;;;16.70;95.50;;;;;;4995157;28;20902;-71
2023/05/15 07:20:04;;;;;;;0.60;0.10;;;16.60;99.90;;;;;;4995407;28;20448;-70
2023/05/15 07:22:32;;;;;;;0.60;0.10;;;16.70;95.40;;;;;;5000201;28;20555;-70
2023/05/15 07:25:10;;;;;;;0.60;0.10;;;16.70;98.70;;;;;;5001338;28;20458;-73
2023/05/15 07:27:38;;;;;;;0.60;0.10;;;16.80;92.40;;;;;;5002180;28;20503;-71
2023/05/15 07:30:07;;;;;;;0.60;0.10;;;16.80;97.60;;;;;;4997414;28;20977;-71
2023/05/15 07:32:35;;;;;;;0.60;0.10;;;16.90;88.00;;;;;;4997692;28;20823;-71
2023/05/15 07:35:03;;;;;;;0.60;0.10;;;17.00;93.40;;;;;;5002150;28;20947;-71
2023/05/15 07:37:32;;;;;;;0.60;0.10;;;;;;;;;;4998543;28;20448;-69
2023/05/15 07:39:59;;;;;;;0.60;0.10;;;17.10;79.00;;;;;;4998102;28;20452;-71
2023/05/15 07:42:29;;;;;;;0.60;0.10;;;17.10;75.90;;;;;;4997975;28;20464;-70
2023/05/15 07:44:57;;;;;;;0.60;0.10;;;17.20;84.70;;;;;;4996092;28;20459;-70
2023/05/15 07:47:24;;;;;;;0.60;0.10;;;17.30;72.20;;;;;;4996454;28;20487;-72
2023/05/15 07:49:52;;;;;;;0.60;0.20;;;17.30;81.60;;;;;;4996828;28;20818;-70
2023/05/15 07:52:20;;;;;;;0.60;0.10;;;17.40;67.60;;;;;;4994897;28;20468;-69
2023/05/15 07:54:48;;;;;;;0.70;0.57;;;17.50;66.50;;;;;;4993735;28;20453;-71
2023/05/15 07:57:16;;;;;;;0.60;0.10;;;17.40;74.80;;;;;;4993956;28;20441;-71
2023/05/15 07:59:45;;;;;;;0.63;0.33;;;17.50;73.70;;;;;;5002583;28;20522;-71
2023/05/15 08:02:13;;;;;;;0.60;0.13;;;17.50;60.60;;;;;;4999883;28;20477;-75
2023/05/15 08:04:41;;;;;;;0.60;0.10;;;17.50;59.10;;;;;;4993583;28;20957;-74
2023/05/15 08:07:09;;;;;;;0.60;0.10;;;;;;;;;;4993462;28;20492;-69
2023/05/15 08:09:37;;;;;;;0.60;0.20;;;17.70;52.60;;;;;;4993288;28;20452;-70
2023/05/15 08:12:19;;;;;;;0.60;0.10;;;17.80;52.50;;;;;;4993741;28;20472;-70
2023/05/15 08:14:50;;;;;;;0.60;0.10;;;17.80;61.80;;;;;;4992373;28;20451;-73
2023/05/15 08:17:19;;;;;;;0.60;0.10;;;17.80;58.50;;;;;;4993563;28;20427;-70
2023/05/15 08:19:48;;;;;;;0.60;0.10;;;17.90;54.00;;;;;;4997798;28;20451;-70
2023/05/15 08:22:16;;;;;;;0.60;0.10;;;17.90;41.60;;;;;;5005740;28;20461;-72
2023/05/15 08:24:45;;;;;;;0.60;0.20;;;;;;;;;;5004414;28;20452;-71
2023/05/15 08:27:12;;;;;;;0.60;0.20;;;18.00;42.60;;;;;;4997348;28;20484;-70
2023/05/15 08:29:40;;;;;;;0.60;0.30;;;18.10;36.60;;;;;;4994633;28;20503;-71
2023/05/15 08:32:10;;;;;;;0.60;0.20;;;18.10;37.40;;;;;;4994674;28;21026;-74
2023/05/15 08:34:38;;;;;;;0.60;0.10;;;;;;;;;;5002171;28;20444;-73
2023/05/15 08:37:06;;;;;;;0.60;0.10;;;18.20;39.80;;;;;;5013269;28;20476;-74
2023/05/15 08:39:34;;;;;;;0.60;0.10;;;18.20;45.00;;;;;;5008670;28;20457;-73
2023/05/15 08:42:08;;;;;;;0.60;0.17;;;18.20;34.50;;;;;;4992762;28;20495;-72
2023/05/15 08:44:36;;;;;;;0.60;0.10;;;18.20;31.30;;;;;;4994216;28;20457;-73
2023/05/15 08:47:06;;;;;;;0.60;0.10;;;18.30;43.10;;;;;;4997004;28;20705;-72
2023/05/15 08:49:44;;;;;;;0.60;0.10;;;18.30;43.40;;;;;;4997202;28;20451;-72
2023/05/15 08:52:13;;;;;;;0.83;0.40;;;18.40;36.00;;;;;;4999439;28;20472;-74
2023/05/15 08:54:41;;;;;;;0.60;0.20;;;18.50;46.00;;;;;;4998239;28;20900;-71
2023/05/15 08:57:09;;;;;;;0.60;0.10;;;18.40;44.20;;;;;;4994906;28;20879;-72
2023/05/15 08:59:41;;;;;;;0.60;0.10;;;18.40;44.50;;;;;;4993438;28;20458;-74
2023/05/15 09:02:08;;;;;;;0.60;0.20;;;18.50;35.70;;;;;;4992425;28;20479;-72
2023/05/15 09:04:38;;;;;;;0.60;0.20;;;18.50;34.50;;;;;;4992137;28;20516;-71
2023/05/15 09:07:07;;;;;;;0.60;0.10;;;18.60;32.70;;;;;;4992797;28;20483;-73
2023/05/15 09:09:36;;;;;;;0.60;0.10;;;18.60;33.00;;;;;;5003617;28;20527;-73
2023/05/15 09:12:05;;;;;;;0.60;0.10;;;18.70;34.70;;;;;;5001259;28;20456;-71
2023/05/15 09:14:33;;;;;;;0.60;0.10;;;18.70;30.00;;;;;;4995640;28;20874;-73
2023/05/15 09:17:01;;;;;;;0.60;0.30;;;18.70;41.50;;;;;;4993166;28;20985;-73
2023/05/15 09:19:29;;;;;;;1.70;1.60;;;18.90;25.20;;;;;;4992963;28;21012;-73
2023/05/15 09:22:16;;;;;;;0.60;0.10;;;18.90;21.00;;;;;;4992855;28;20460;-74
2023/05/15 09:24:46;;;;;;;1.07;0.50;;;18.90;29.30;;;;;;4992822;28;20452;-72
2023/05/15 09:27:15;;;;;;;0.60;0.10;;;18.90;18.80;;;;;;4995776;28;20505;-72
2023/05/15 09:29:43;;;;;;;0.80;0.50;;;18.90;24.90;;;;;;4996264;28;20453;-73
2023/05/15 09:32:12;;;;;;;0.60;0.20;;;19.00;16.80;;;;;;4995877;28;20496;-73
2023/05/15 09:34:42;;;;;;;1.20;1.13;;;19.10;16.50;;;;;;4996699;28;20487;-73
2023/05/15 09:37:28;;;;;;;0.60;0.10;;;19.20;21.10;;;;;;4996560;28;20446;-72
2023/05/15 09:39:56;;;;;;;0.60;0.20;;;19.50;9.70;;;;;;4995748;28;20831;-74
2023/05/15 09:42:24;;;;;;;0.60;0.20;;;19.60;9.00;;;;;;4995408;28;20492;-74
2023/05/15 09:44:52;;;;;;;0.60;0.10;;;19.70;18.00;;;;;;5008938;28;20966;-73
2023/05/15 09:47:20;;;;;;;0.60;0.10;;;19.80;16.10;;;;;;5007060;28;20490;-73
2023/05/15 09:49:48;;;;;;;0.60;0.10;;;20.00;7.40;;;;;;5000822;28;20888;-74
2023/05/15 09:52:19;;;;;;;0.60;0.10;;;20.00;7.70;;;;;;4998980;28;20534;-72
2023/05/15 09:54:46;;;;;;;0.60;0.20;;;20.10;15.20;;;;;;5002641;28;20439;-71
2023/05/15 09:57:22;;;;;;;0.60;0.20;;;20.10;15.80;;;;;;5006128;28;20440;-72
2023/05/15 09:59:50;;;;;;;1.53;0.83;;;20.00;17.60;;;;;;5003506;28;20445;-70
2023/05/15 10:02:26;;;;;;;2.23;1.13;;;19.70;8.20;;;;;;5006065;28;20468;-72
2023/05/15 10:04:56;;;;;;;0.80;0.30;;;19.60;10.70;;;;;;5020226;28;20502;-71
2023/05/15 10:07:30;;;;;;;0.60;0.10;;;19.50;10.50;;;;;;5019638;28;20499;-71
2023/05/15 10:09:58;;;;;;;0.60;0.10;;;19.40;18.90;;;;;;5020648;28;20441;-72
2023/05/15 10:12:27;;;;;;;0.60;0.17;;;19.40;11.30;;;;;;5005513;28;20472;-70
2023/05/15 10:14:57;;;;;;;0.60;0.10;;;;;;;;;;4981090;23;20908;-73
2023/05/15 10:17:25;;;;;;;0.70;0.10;;;19.60;8.20;;;;;;4956882;28;20440;-71
2023/05/15 10:19:54;;;;;;;0.60;0.20;;;19.90;18.70;;;;;;4945632;29;20432;-71
2023/05/15 10:22:30;;;;;;;4.00;3.80;;;20.00;21.60;;;;;;4946532;28;20451;-73
2023/05/15 10:25:02;;;;;;;0.60;0.10;;;20.00;15.40;;;;;;4946535;28;20491;-71
2023/05/15 10:27:30;;;;;;;0.60;0.10;;;20.10;17.10;;;;;;4945557;29;20483;-72
2023/05/15 10:29:59;;;;;;;0.70;0.50;;;20.00;13.40;;;;;;4946070;28;20446;-72
2023/05/15 10:32:28;;;;;;;1.53;1.00;;;20.00;13.40;;;;;;4942094;28;20949;-72
2023/05/15 10:34:57;;;;;;;1.43;0.97;;;19.90;11.40;;;;;;4940075;29;20495;-73
2023/05/15 10:37:26;;;;;;;1.73;1.57;;;19.80;9.70;;;;;;4938809;29;20539;-71
2023/05/15 10:39:57;;;;;;;0.87;0.67;;;19.60;10.50;;;;;;4939273;29;20951;-70
2023/05/15 10:42:26;;;;;;;2.10;1.30;;;19.50;11.70;;;;;;4937713;29;20510;-72
2023/05/15 10:44:58;;;;;;;0.60;0.10;;;19.40;12.40;;;;;;4938019;29;20472;-71
2023/05/15 10:47:27;;;;;;;0.60;0.20;;;19.50;14.80;;;;;;4937564;29;20512;-72
2023/05/15 10:49:55;;;;;;;0.60;0.10;;;19.50;17.20;;;;;;4938909;29;20494;-72
2023/05/15 10:52:23;;;;;;;0.60;0.10;;;19.50;15.80;;;;;;4938194;29;20466;-71
2023/05/15 10:54:53;;;;;;;0.60;0.30;;;19.50;14.00;;;;;;4938716;29;20482;-72
2023/05/15 10:57:22;;;;;;;0.60;0.20;;;19.50;12.70;;;;;;4937364;29;20556;-74
2023/05/15 10:59:50;;;;;;;0.60;0.20;;;19.50;13.80;;;;;;4936868;29;20459;-72
2023/05/15 11:02:22;;;;;;;1.20;1.10;;;19.50;13.70;;;;;;4936027;29;20444;-71
2023/05/15 11:04:56;;;;;;;0.60;0.10;;;19.60;11.20;;;;;;4951986;28;20463;-73
2023/05/15 11:07:24;;;;;;;0.60;0.10;;;19.60;8.80;;;;;;4953121;29;20983;-72
2023/05/15 11:09:53;;;;;;;0.60;0.10;;;;;;;;;;4957081;28;20474;-71
2023/05/15 11:12:23;;;;;;;0.60;0.10;;;19.80;12.50;;;;;;4955468;28;20461;-71
2023/05/15 11:15:20;;;;;;;0.60;0.10;;;19.80;12.10;;;;;;4954863;29;20474;-72
2023/05/15 11:18:05;;;;;;;1.13;1.03;;;19.90;14.80;;;;;;4954520;29;20568;-72
2023/05/15 11:20:33;;;;;;;0.60;0.20;;;19.90;15.20;;;;;;4916414;29;20504;-71
2023/05/15 11:23:03;;;;;;;0.60;0.10;;;20.00;13.10;;;;;;4916212;29;20458;-71
2023/05/15 11:25:32;;;;;;;0.60;0.10;;;20.00;10.70;;;;;;4915937;29;20906;-72
2023/05/15 11:28:02;;;;;;;0.60;0.10;;;20.00;10.90;;;;;;4916251;29;20501;-71
2023/05/15 11:30:38;;;;;;;1.20;0.60;;;22.10;12.40;;;;;;4916060;29;20445;-71
2023/05/15 11:33:11;;;;;;;0.87;0.20;;;20.00;9.20;;;;;;4920589;29;20992;-72
2023/05/15 11:35:41;;;;;;;0.60;0.10;;;20.10;10.30;;;;;;4934945;29;20448;-71
2023/05/15 11:38:15;;;;;;;0.60;0.20;;;20.30;9.80;;;;;;4934418;29;20452;-71
2023/05/15 11:40:47;;;;;;;0.60;0.20;;;20.60;9.20;;;;;;4934721;29;20452;-72
2023/05/15 11:43:21;;;;;;;1.10;0.20;;;20.70;9.90;;;;;;4934953;29;20452;-72
2023/05/15 11:45:54;;;;;;;8.13;3.27;;;20.90;9.50;;;;;;4935684;29;20448;-72
2023/05/15 11:48:24;;;;;;;0.60;0.10;;;20.90;6.30;;;;;;4934522;29;20483;-73
2023/05/15 11:50:53;;;;;;;0.60;0.10;;;20.80;6.60;;;;;;4935130;29;20511;-73
2023/05/15 11:53:22;;;;;;;0.60;0.10;;;20.80;7.30;;;;;;4934873;29;20499;-72
2023/05/15 11:55:53;;;;;;;0.60;0.20;;;20.90;6.70;;;;;;4934887;29;20453;-71
2023/05/15 11:58:24;;;;;;;0.60;0.10;;;20.90;7.80;;;;;;4935498;29;20448;-72
2023/05/15 12:00:54;;;;;;;0.60;0.20;;;20.80;7.90;;;;;;4935361;29;20452;-73
2023/05/15 12:03:24;;;;;;;0.60;0.27;;;20.80;9.50;;;;;;4934575;29;20830;-72
2023/05/15 12:05:54;;;;;;;2.93;0.83;;;20.80;6.30;;;;;;4934896;29;20952;-73
2023/05/15 12:08:27;;;;;;;1.43;1.33;;;;;;;;;;4934995;29;20483;-73
2023/05/15 12:10:59;;;;;;;0.60;0.10;;;20.80;1.00;;;;;;4934814;29;20855;-71
2023/05/15 12:13:29;;;;;;;1.53;0.87;;;20.80;1.00;;;;;;4934516;29;20554;-73
2023/05/15 12:15:57;;;;;;;0.60;0.10;;;20.80;4.00;;;;;;4934969;29;20440;-72
2023/05/15 12:18:26;;;;;;;0.60;0.10;;;;;;;;;;4934443;29;20878;-72
2023/05/15 12:20:54;;;;;;;0.80;0.60;;;20.90;8.80;;;;;;4935063;29;20456;-73
2023/05/15 12:23:23;;;;;;;0.60;0.10;;;20.90;8.90;;;;;;4934089;29;20490;-73
2023/05/15 12:25:57;;;;;;;1.33;1.20;;;20.90;9.20;;;;;;4934782;29;20538;-72
2023/05/15 12:28:25;;;;;;;1.73;1.63;;;20.80;11.90;;;;;;4935256;29;20479;-72
2023/05/15 12:30:55;;;;;;;0.80;0.30;;;20.80;14.30;;;;;;4934875;29;20444;-74
2023/05/15 12:33:24;;;;;;;0.90;0.47;;;20.70;9.10;;;;;;4934424;29;20870;-72
2023/05/15 12:35:55;;;;;;;6.03;5.63;;;20.70;9.90;;;;;;4934727;29;20459;-71
2023/05/15 12:38:28;;;;;;;0.60;0.10;;;20.70;11.90;;;;;;4935138;29;20432;-72
2023/05/15 12:40:56;;;;;;;0.60;0.20;;;;;;;;;;4935372;29;20440;-72
2023/05/15 12:43:25;;;;;;;0.60;0.20;;;20.80;16.10;;;;;;4934342;29;20504;-72
2023/05/15 12:45:56;;;;;;;0.60;0.10;;;20.80;16.60;;;;;;4928547;29;20468;-73
2023/05/15 12:48:28;;;;;;;0.60;0.10;;;20.80;16.50;;;;;;4934942;29;20487;-72
2023/05/15 12:51:03;;;;;;;0.70;0.40;;;20.90;12.10;;;;;;4936274;29;20446;-72
2023/05/15 12:53:33;;;;;;;0.80;0.43;;;20.80;7.60;;;;;;4935119;29;20467;-72
2023/05/15 12:56:01;;;;;;;0.77;0.40;;;20.70;6.90;;;;;;4934630;29;20455;-72
2023/05/15 12:58:29;;;;;;;0.60;0.10;;;20.70;7.60;;;;;;4935596;29;20475;-71
2023/05/15 13:00:58;;;;;;;0.60;0.13;;;20.70;5.50;;;;;;4939060;29;20605;-73
2023/05/15 13:03:26;;;;;;;0.67;0.30;;;20.80;6.30;;;;;;4938723;29;20569;-73
2023/05/15 13:05:55;;;;;;;0.60;0.10;;;20.80;6.40;;;;;;4938771;29;20528;-71
2023/05/15 13:08:23;;;;;;;0.60;0.13;;;;;;;;;;4938475;29;20543;-73
2023/05/15 13:10:56;;;;;;;1.63;0.93;;;20.80;1.00;;;;;;4938033;29;21002;-72
2023/05/15 13:13:24;;;;;;;0.80;0.33;;;20.80;1.00;;;;;;4937410;29;20507;-70
2023/05/15 13:15:54;;;;;;;0.60;0.10;;;20.80;1.00;;;;;;4948909;29;20442;-71
2023/05/15 13:18:24;;;;;;;0.60;0.20;;;20.80;1.00;;;;;;4943635;28;20444;-72
2023/05/15 13:20:52;;;;;;;0.60;0.20;;;20.80;1.00;;;;;;4938592;29;20449;-72
2023/05/15 13:23:22;;;;;;;0.83;0.83;;;20.80;1.00;;;;;;4938103;29;20476;-72
2023/05/15 13:25:51;;;;;;;0.70;0.20;;;;;;;;;;4939519;29;20448;-71
2023/05/15 13:28:19;;;;;;;0.70;0.30;;;;;;;;;;4940042;29;20451;-71
2023/05/15 13:30:47;;;;;;;0.60;0.10;;;;;;;;;;4938946;29;20483;-70
2023/05/15 13:33:15;;;;;;;1.10;0.83;;;20.30;1.00;;;;;;4937445;29;20458;-71
2023/05/15 13:35:44;;;;;;;1.17;0.87;;;20.10;1.00;;;;;;4937850;29;20452;-71
2023/05/15 13:38:12;;;;;;;0.60;0.20;;;;;;;;;;4938219;29;20454;-72
2023/05/15 13:40:40;;;;;;;0.70;0.33;;;;;;;;;;4938272;29;20447;-73
2023/05/15 13:43:09;;;;;;;1.73;0.60;;;19.80;1.00;;;;;;4937928;29;20446;-71
2023/05/15 13:45:36;;;;;;;0.60;0.20;;;19.60;1.00;;;;;;4935198;29;20448;-73
2023/05/15 13:48:05;;;;;;;0.60;0.10;;;19.30;1.00;;;;;;4918545;29;20446;-73
2023/05/15 13:50:33;;;;;;;0.70;0.30;;;;;;;;;;4918183;29;20497;-73
2023/05/15 13:53:02;;;;;;;0.80;0.53;;;19.10;1.00;;;;;;4917948;29;20445;-72
2023/05/15 13:55:30;;;;;;;0.60;0.20;;;18.90;1.00;;;;;;4917950;29;20798;-72
2023/05/15 13:57:59;;;;;;;0.60;0.20;;;;;;;;;;4932379;29;20451;-73
2023/05/15 14:00:27;;;;;;;0.60;0.10;;;18.80;1.00;;;;;;4955931;28;20441;-72
2023/05/15 14:02:55;;;;;;;3.00;0.57;;;18.80;1.00;;;;;;4955933;28;20446;-73
2023/05/15 14:05:23;;;;;;;1.37;0.73;;;18.70;4.90;;;;;;4955722;29;20455;-72
2023/05/15 14:07:52;;;;;;;0.80;0.40;;;;;;;;;;4956592;29;20446;-71
2023/05/15 14:10:22;;;;;;;0.60;0.20;;;18.50;10.50;;;;;;4953099;28;20513;-72
2023/05/15 14:12:51;;;;;;;0.60;0.20;;;18.50;13.50;;;;;;4938172;29;20455;-74
2023/05/15 14:15:18;;;;;;;0.80;0.60;;;18.40;15.90;;;;;;4938817;29;20570;-73
2023/05/15 14:17:47;;;;;;;1.83;1.73;;;18.20;16.30;;;;;;4938829;29;20508;-70
2023/05/15 14:20:15;;;;;;;0.70;0.40;;;18.10;15.60;;;;;;4937009;29;20473;-72
2023/05/15 14:22:43;;;;;;;0.60;0.10;;;17.90;15.60;;;;;;4936284;29;20455;-73
2023/05/15 14:25:11;;;;;;;1.07;0.93;;;17.90;17.90;;;;;;4936494;29;20470;-71
2023/05/15 14:27:40;;;;;;;1.27;0.67;;;17.70;20.10;;;;;;4939204;29;20463;-71
2023/05/15 14:30:09;;;;;;;0.70;0.33;;;;;;;;;;4939671;29;20498;-73
2023/05/15 14:32:36;;;;;;;0.70;0.33;;;17.40;29.80;;;;;;4942600;29;20454;-71
2023/05/15 14:35:05;;;;;;;0.60;0.20;;;17.20;33.30;;;;;;4944374;28;20494;-70
2023/05/15 14:37:33;;;;;;;0.60;0.10;;;17.10;36.00;;;;;;4936160;29;20448;-71
2023/05/15 14:40:01;;;;;;;0.70;0.50;;;16.90;42.40;;;;;;4935995;29;20507;-72
2023/05/15 14:42:28;;;;;;;2.40;0.53;;;16.80;42.20;;;;;;4935721;29;20462;-71
2023/05/15 14:44:58;;;;;;;0.60;0.20;;;16.70;47.90;;;;;;4935882;29;20534;-72
2023/05/15 14:47:27;;;;;;;0.60;0.10;;;16.60;54.70;;;;;;4919696;29;20451;-73
2023/05/15 14:49:55;;;;;;;0.60;0.20;;;16.60;55.70;;;;;;4919927;29;20486;-72
2023/05/15 14:52:23;;;;;;;0.60;0.20;;;16.60;52.80;;;;;;4935851;29;20520;-73
2023/05/15 14:54:50;;;;;;;0.60;0.20;;;16.50;52.60;;;;;;4937018;29;21002;-72
2023/05/15 14:57:35;;;;;;;0.60;0.30;;;16.50;51.40;;;;;;4935639;29;20458;-71
2023/05/15 15:00:05;;;;;;;0.60;0.10;;;16.50;55.40;;;;;;4935760;29;20443;-71
2023/05/15 15:02:33;;;;;;;0.70;0.47;;;16.60;59.60;;;;;;4935568;29;20478;-73
2023/05/15 15:05:01;;;;;;;0.60;0.20;;;17.60;60.60;;;;;;4935758;29;20889;-71
2023/05/15 15:07:30;;;;;;;0.60;0.23;;;16.50;60.30;;;;;;4935179;29;20452;-70
2023/05/15 15:09:57;;;;;;;0.80;0.47;;;16.50;57.70;;;;;;4933866;29;20494;-71
2023/05/15 15:12:26;;;;;;;0.60;0.20;;;16.50;60.70;;;;;;4935237;29;20961;-74
2023/05/15 15:14:54;;;;;;;0.60;0.10;;;16.50;60.30;;;;;;4935434;29;20476;-71
2023/05/15 15:17:23;;;;;;;0.60;0.27;;;16.60;56.20;;;;;;4935508;29;20822;-71
2023/05/15 15:19:51;;;;;;;0.60;0.10;;;16.60;58.20;;;;;;4933574;29;20948;-73
2023/05/15 15:22:19;;;;;;;0.60;0.10;;;16.60;57.00;;;;;;4934266;29;20978;-74
2023/05/15 15:24:47;;;;;;;0.60;0.10;;;16.60;59.70;;;;;;4935144;29;20653;-71
2023/05/15 15:27:15;;;;;;;2.07;1.50;;;;;;;;;;4935451;29;20457;-72
2023/05/15 15:29:43;;;;;;;0.60;0.10;;;16.60;61.50;;;;;;4935016;29;20475;-71
2023/05/15 15:32:11;;;;;;;0.97;0.93;;;16.60;58.70;;;;;;4934448;29;20459;-71
2023/05/15 15:34:41;;;;;;;0.60;0.13;;;16.60;55.70;;;;;;4935393;29;20465;-73
2023/05/15 15:37:08;;;;;;;0.60;0.10;;;16.70;57.90;;;;;;4935369;29;20447;-72
2023/05/15 15:39:36;;;;;;;0.60;0.10;;;16.70;51.80;;;;;;4935404;29;20822;-72
2023/05/15 15:42:05;;;;;;;2.50;1.23;;;16.70;47.70;;;;;;4934756;29;20945;-72
2023/05/15 15:44:34;;;;;;;0.60;0.10;;;16.80;48.50;;;;;;4934815;29;20973;-72
2023/05/15 15:47:02;;;;;;;0.60;0.10;;;;;;;;;;4945588;28;20459;-72
2023/05/15 15:49:30;;;;;;;0.60;0.10;;;16.90;48.00;;;;;;4943157;29;20446;-73
2023/05/15 15:52:00;;;;;;;0.60;0.10;;;16.90;52.20;;;;;;4942033;29;20486;-71
2023/05/15 15:54:29;;;;;;;0.60;0.10;;;;;;;;;;4944556;28;20459;-72
2023/05/15 15:56:56;;;;;;;0.60;0.13;;;16.90;53.80;;;;;;4916700;29;20461;-71
2023/05/15 15:59:24;;;;;;;0.60;0.20;;;17.00;51.10;;;;;;4916610;29;20875;-73
2023/05/15 16:01:52;;;;;;;0.60;0.10;;;;;;;;;;4916177;29;20500;-71
2023/05/15 16:04:20;;;;;;;0.60;0.20;;;17.10;50.90;;;;;;4927069;29;20478;-71
2023/05/15 16:06:48;;;;;;;0.60;0.10;;;17.10;45.90;;;;;;4931973;29;20475;-72
2023/05/15 16:09:19;;;;;;;0.60;0.13;;;17.10;47.00;;;;;;4925848;29;20949;-71
2023/05/15 16:11:46;;;;;;;0.60;0.10;;;17.10;48.30;;;;;;4945530;29;20844;-72
2023/05/15 16:14:15;;;;;;;0.60;0.10;;;;;;;;;;4976860;23;20927;-74
2023/05/15 16:16:43;;;;;;;0.60;0.10;;;;;;;;;;4991932;28;20449;-74
2023/05/15 16:19:12;;;;;;;0.70;0.40;;;;;;;;;;5005399;28;20550;-74
2023/05/15 16:21:41;;;;;;;0.60;0.10;;;17.40;51.70;;;;;;4995419;28;20502;-71
2023/05/15 16:24:09;;;;;;;0.60;0.20;;;17.50;49.70;;;;;;4990281;28;20486;-75
2023/05/15 16:26:38;;;;;;;0.60;0.20;;;17.50;47.70;;;;;;4982631;28;20829;-74
2023/05/15 16:29:06;;;;;;;0.60;0.10;;;17.50;47.60;;;;;;4974854;28;20450;-74
2023/05/15 16:31:35;;;;;;;0.60;0.10;;;17.60;47.20;;;;;;4974844;28;20501;-74
2023/05/15 16:34:03;;;;;;;0.60;0.10;;;17.60;51.10;;;;;;4983988;28;20472;-74
2023/05/15 16:36:31;;;;;;;0.97;0.47;;;17.60;56.30;;;;;;4986128;28;20457;-75
2023/05/15 16:39:00;;;;;;;0.60;0.20;;;17.60;68.20;;;;;;4979789;28;20527;-74
2023/05/15 16:41:28;;;;;;;0.60;0.13;;;17.70;56.30;;;;;;4975219;28;20489;-75
2023/05/15 16:43:57;;;;;;;1.17;1.03;;;17.60;55.00;;;;;;4975592;28;20484;-74
2023/05/15 16:46:26;;;;;;;0.60;0.20;;;;;;;;;;4978619;28;20453;-75
2023/05/15 16:48:53;;;;;;;0.60;0.10;;;17.60;59.20;;;;;;4977992;28;20480;-75
2023/05/15 16:51:22;;;;;;;0.60;0.10;;;;;;;;;;4977733;28;20515;-73
2023/05/15 16:53:52;;;;;;;0.80;0.20;;;17.60;63.50;;;;;;4962477;28;20480;-76
2023/05/15 16:56:20;;;;;;;0.60;0.10;;;17.60;65.00;;;;;;4958163;28;20458;-74
2023/05/15 16:58:49;;;;;;;0.60;0.20;;;17.60;66.80;;;;;;4958433;28;20453;-75
2023/05/15 17:01:19;;;;;;;0.60;0.10;;;17.60;67.40;;;;;;4958349;28;20464;-75
2023/05/15 17:03:47;;;;;;;0.60;0.20;;;17.70;68.40;;;;;;4958528;28;20450;-74
2023/05/15 17:06:15;;;;;;;0.70;0.40;;;17.70;73.20;;;;;;4967176;28;20461;-72
2023/05/15 17:08:45;;;;;;;0.60;0.10;;;17.80;83.50;;;;;;4974354;28;20501;-72